createdAt,value
2017-10-26T00:00:40.522Z,1018.99
2017-10-26T00:01:49.150Z,1018.96
2017-10-26T00:02:57.777Z,1019.01
2017-10-26T00:04:06.409Z,1019.01
2017-10-26T00:05:15.038Z,1019.01
2017-10-26T00:06:23.673Z,1019.01
2017-10-26T00:07:32.294Z,1019.01
2017-10-26T00:08:40.926Z,1018.98
2017-10-26T00:09:49.559Z,1018.98
2017-10-26T00:10:58.187Z,1018.95
2017-10-26T00:12:06.818Z,1018.94
2017-10-26T00:13:15.451Z,1018.95
2017-10-26T00:14:24.077Z,1018.92
2017-10-26T00:15:32.707Z,1018.86
2017-10-26T00:16:41.331Z,1018.87
2017-10-26T00:17:49.959Z,1018.85
2017-10-26T00:18:58.590Z,1018.86
2017-10-26T00:20:07.218Z,1018.88
2017-10-26T00:21:15.844Z,1018.89
2017-10-26T00:22:24.480Z,1018.93
2017-10-26T00:23:33.434Z,1018.96
2017-10-26T00:24:42.061Z,1019
2017-10-26T00:25:50.698Z,1018.99
2017-10-26T00:26:59.322Z,1018.97
2017-10-26T00:28:07.950Z,1018.95
2017-10-26T00:29:16.574Z,1018.94
2017-10-26T00:30:25.203Z,1018.91
2017-10-26T00:31:33.841Z,1019
2017-10-26T00:32:42.462Z,1018.97
2017-10-26T00:33:51.088Z,1019.04
2017-10-26T00:35:00.059Z,1019.04
2017-10-26T00:36:08.689Z,1019.03
2017-10-26T00:37:17.313Z,1019.08
2017-10-26T00:38:26.271Z,1019.09
2017-10-26T00:39:34.897Z,1019.05
2017-10-26T00:40:43.533Z,1019.04
2017-10-26T00:41:52.159Z,1019.01
2017-10-26T00:43:00.794Z,1018.92
2017-10-26T00:44:09.420Z,1018.91
2017-10-26T00:45:18.046Z,1018.9
2017-10-26T00:46:26.672Z,1018.9
2017-10-26T00:47:35.297Z,1018.97
2017-10-26T00:48:43.926Z,1018.99
2017-10-26T00:49:52.559Z,1018.97
2017-10-26T00:51:01.188Z,1018.99
2017-10-26T00:52:09.815Z,1019.02
2017-10-26T00:53:18.452Z,1019.02
2017-10-26T00:54:27.078Z,1019
2017-10-26T00:55:35.700Z,1019.01
2017-10-26T00:56:44.329Z,1018.99
2017-10-26T00:57:52.950Z,1018.99
2017-10-26T00:59:01.589Z,1019
2017-10-26T01:00:10.213Z,1018.98
2017-10-26T01:01:18.838Z,1018.99
2017-10-26T01:02:27.474Z,1018.97
2017-10-26T01:03:36.434Z,1018.93
2017-10-26T01:04:45.062Z,1018.96
2017-10-26T01:05:53.690Z,1018.93
2017-10-26T01:07:02.317Z,1018.91
2017-10-26T01:08:10.945Z,1018.85
2017-10-26T01:09:19.573Z,1018.9
2017-10-26T01:10:28.200Z,1018.9
2017-10-26T01:11:36.838Z,1018.94
2017-10-26T01:12:45.455Z,1018.98
2017-10-26T01:13:54.085Z,1019
2017-10-26T01:15:02.717Z,1019
2017-10-26T01:16:11.334Z,1018.96
2017-10-26T01:17:19.966Z,1018.95
2017-10-26T01:18:28.593Z,1018.92
2017-10-26T01:19:37.215Z,1018.89
2017-10-26T01:20:45.850Z,1018.91
2017-10-26T01:21:54.478Z,1018.88
2017-10-26T01:23:03.102Z,1018.87
2017-10-26T01:24:11.733Z,1018.84
2017-10-26T01:25:20.362Z,1018.82
2017-10-26T01:26:28.982Z,1018.84
2017-10-26T01:27:37.612Z,1018.82
2017-10-26T01:28:46.238Z,1018.83
2017-10-26T01:29:54.872Z,1018.83
2017-10-26T01:31:03.510Z,1018.91
2017-10-26T01:32:12.133Z,1018.9
2017-10-26T01:33:21.114Z,1018.88
2017-10-26T01:34:29.746Z,1018.92
2017-10-26T01:35:38.372Z,1018.91
2017-10-26T01:36:47.004Z,1018.91
2017-10-26T01:37:55.635Z,1018.87
2017-10-26T01:39:04.256Z,1018.9
2017-10-26T01:40:12.894Z,1018.86
2017-10-26T01:41:21.518Z,1018.86
2017-10-26T01:42:30.149Z,1018.88
2017-10-26T01:43:38.779Z,1018.92
2017-10-26T01:44:47.401Z,1018.96
2017-10-26T01:45:56.032Z,1018.99
2017-10-26T01:47:04.663Z,1019.06
2017-10-26T01:48:13.619Z,1019
2017-10-26T01:49:22.250Z,1019.07
2017-10-26T01:50:30.879Z,1019
2017-10-26T01:51:39.511Z,1018.96
2017-10-26T01:52:48.137Z,1018.93
2017-10-26T01:53:56.774Z,1018.86
2017-10-26T01:55:05.400Z,1018.81
2017-10-26T01:56:14.027Z,1018.7
2017-10-26T01:57:22.649Z,1018.68
2017-10-26T01:58:31.605Z,1018.66
2017-10-26T01:59:40.233Z,1018.62
2017-10-26T02:00:48.856Z,1018.64
2017-10-26T02:01:57.485Z,1018.61
2017-10-26T02:03:06.121Z,1018.66
2017-10-26T02:04:14.752Z,1018.72
2017-10-26T02:05:23.379Z,1018.76
2017-10-26T02:06:32.002Z,1018.81
2017-10-26T02:07:40.630Z,1018.77
2017-10-26T02:08:49.261Z,1018.81
2017-10-26T02:09:57.885Z,1018.82
2017-10-26T02:11:06.522Z,1018.81
2017-10-26T02:12:15.140Z,1018.78
2017-10-26T02:13:23.773Z,1018.8
2017-10-26T02:14:32.404Z,1018.81
2017-10-26T02:15:41.026Z,1018.85
2017-10-26T02:16:49.655Z,1018.85
2017-10-26T02:17:58.285Z,1018.91
2017-10-26T02:19:06.911Z,1018.9
2017-10-26T02:20:15.535Z,1018.94
2017-10-26T02:21:24.169Z,1018.95
2017-10-26T02:22:32.796Z,1018.88
2017-10-26T02:23:41.423Z,1018.76
2017-10-26T02:24:50.057Z,1018.74
2017-10-26T02:25:58.678Z,1018.72
2017-10-26T02:27:07.308Z,1018.74
2017-10-26T02:28:15.933Z,1018.74
2017-10-26T02:29:24.560Z,1018.72
2017-10-26T02:30:33.193Z,1018.69
2017-10-26T02:31:41.819Z,1018.7
2017-10-26T02:32:50.445Z,1018.66
2017-10-26T02:33:59.074Z,1018.61
2017-10-26T02:35:08.070Z,1018.62
2017-10-26T02:36:17.025Z,1018.58
2017-10-26T02:37:25.655Z,1018.56
2017-10-26T02:38:34.288Z,1018.59
2017-10-26T02:39:42.908Z,1018.58
2017-10-26T02:40:51.545Z,1018.56
2017-10-26T02:42:00.168Z,1018.59
2017-10-26T02:43:08.804Z,1018.59
2017-10-26T02:44:17.431Z,1018.6
2017-10-26T02:45:26.059Z,1018.58
2017-10-26T02:46:34.690Z,1018.57
2017-10-26T02:47:43.320Z,1018.61
2017-10-26T02:48:51.940Z,1018.66
2017-10-26T02:50:00.565Z,1018.68
2017-10-26T02:51:09.197Z,1018.66
2017-10-26T02:52:17.821Z,1018.65
2017-10-26T02:53:26.788Z,1018.61
2017-10-26T02:54:35.421Z,1018.59
2017-10-26T02:55:44.051Z,1018.61
2017-10-26T02:56:52.689Z,1018.62
2017-10-26T02:58:01.305Z,1018.61
2017-10-26T02:59:09.940Z,1018.6
2017-10-26T03:00:18.566Z,1018.56
2017-10-26T03:01:27.188Z,1018.51
2017-10-26T03:02:35.825Z,1018.53
2017-10-26T03:03:44.450Z,1018.51
2017-10-26T03:04:53.079Z,1018.49
2017-10-26T03:06:01.713Z,1018.5
2017-10-26T03:07:10.330Z,1018.46
2017-10-26T03:08:18.960Z,1018.48
2017-10-26T03:09:27.583Z,1018.46
2017-10-26T03:10:36.221Z,1018.45
2017-10-26T03:11:44.844Z,1018.42
2017-10-26T03:12:53.469Z,1018.44
2017-10-26T03:14:02.096Z,1018.47
2017-10-26T03:15:10.732Z,1018.51
2017-10-26T03:16:19.357Z,1018.53
2017-10-26T03:17:27.988Z,1018.55
2017-10-26T03:18:36.619Z,1018.67
2017-10-26T03:19:45.245Z,1018.72
2017-10-26T03:20:53.873Z,1018.72
2017-10-26T03:22:02.506Z,1018.71
2017-10-26T03:23:11.130Z,1018.71
2017-10-26T03:24:19.767Z,1018.74
2017-10-26T03:25:28.387Z,1018.71
2017-10-26T03:26:37.367Z,1018.71
2017-10-26T03:27:45.979Z,1018.68
2017-10-26T03:28:54.937Z,1018.67
2017-10-26T03:30:03.567Z,1018.66
2017-10-26T03:31:12.203Z,1018.72
2017-10-26T03:32:20.828Z,1018.72
2017-10-26T03:33:29.458Z,1018.71
2017-10-26T03:34:38.087Z,1018.72
2017-10-26T03:35:46.710Z,1018.71
2017-10-26T03:36:55.343Z,1018.72
2017-10-26T03:38:03.971Z,1018.74
2017-10-26T03:39:12.589Z,1018.74
2017-10-26T03:40:21.221Z,1018.76
2017-10-26T03:41:29.848Z,1018.77
2017-10-26T03:42:38.474Z,1018.82
2017-10-26T03:43:47.108Z,1018.83
2017-10-26T03:44:55.733Z,1018.77
2017-10-26T03:46:04.358Z,1018.78
2017-10-26T03:47:12.986Z,1018.85
2017-10-26T03:48:21.608Z,1018.84
2017-10-26T03:49:30.237Z,1018.82
2017-10-26T03:50:38.866Z,1018.69
2017-10-26T03:51:47.498Z,1018.71
2017-10-26T03:52:56.119Z,1018.64
2017-10-26T03:54:04.754Z,1018.6
2017-10-26T03:55:13.378Z,1018.6
2017-10-26T03:56:22.015Z,1018.6
2017-10-26T03:57:30.635Z,1018.62
2017-10-26T03:58:39.262Z,1018.6
2017-10-26T03:59:47.891Z,1018.7
2017-10-26T04:00:56.511Z,1018.72
2017-10-26T04:02:05.146Z,1018.71
2017-10-26T04:03:13.800Z,1018.65
2017-10-26T04:04:22.398Z,1018.66
2017-10-26T04:05:31.032Z,1018.67
2017-10-26T04:06:39.656Z,1018.63
2017-10-26T04:07:48.282Z,1018.62
2017-10-26T04:08:56.908Z,1018.6
2017-10-26T04:10:05.535Z,1018.61
2017-10-26T04:11:14.166Z,1018.64
2017-10-26T04:12:22.791Z,1018.68
2017-10-26T04:13:31.417Z,1018.67
2017-10-26T04:14:40.048Z,1018.69
2017-10-26T04:15:48.673Z,1018.72
2017-10-26T04:16:57.304Z,1018.67
2017-10-26T04:18:05.928Z,1018.64
2017-10-26T04:19:14.556Z,1018.66
2017-10-26T04:20:23.180Z,1018.55
2017-10-26T04:21:31.809Z,1018.54
2017-10-26T04:22:40.435Z,1018.52
2017-10-26T04:23:49.070Z,1018.57
2017-10-26T04:24:57.694Z,1018.63
2017-10-26T04:26:06.320Z,1018.59
2017-10-26T04:27:14.948Z,1018.57
2017-10-26T04:28:23.579Z,1018.55
2017-10-26T04:29:32.199Z,1018.53
2017-10-26T04:30:40.828Z,1018.52
2017-10-26T04:31:49.452Z,1018.53
2017-10-26T04:32:58.086Z,1018.5
2017-10-26T04:34:06.718Z,1018.51
2017-10-26T04:35:16.001Z,1018.53
2017-10-26T04:36:24.633Z,1018.56
2017-10-26T04:37:33.252Z,1018.53
2017-10-26T04:38:42.221Z,1018.49
2017-10-26T04:39:50.847Z,1018.49
2017-10-26T04:40:59.472Z,1018.48
2017-10-26T04:42:08.105Z,1018.5
2017-10-26T04:43:16.734Z,1018.52
2017-10-26T04:44:25.360Z,1018.49
2017-10-26T04:45:33.987Z,1018.48
2017-10-26T04:46:42.618Z,1018.53
2017-10-26T04:47:51.241Z,1018.5
2017-10-26T04:48:59.873Z,1018.53
2017-10-26T04:50:08.503Z,1018.52
2017-10-26T04:51:17.122Z,1018.53
2017-10-26T04:52:25.759Z,1018.54
2017-10-26T04:53:34.383Z,1018.47
2017-10-26T04:54:43.022Z,1018.44
2017-10-26T04:55:51.647Z,1018.45
2017-10-26T04:57:00.268Z,1018.47
2017-10-26T04:58:08.896Z,1018.48
2017-10-26T04:59:17.522Z,1018.43
2017-10-26T05:00:26.157Z,1018.46
2017-10-26T05:01:34.782Z,1018.43
2017-10-26T05:02:43.407Z,1018.5
2017-10-26T05:03:52.035Z,1018.52
2017-10-26T05:05:00.670Z,1018.53
2017-10-26T05:06:09.289Z,1018.53
2017-10-26T05:07:17.924Z,1018.49
2017-10-26T05:08:26.551Z,1018.44
2017-10-26T05:09:35.519Z,1018.42
2017-10-26T05:10:44.144Z,1018.42
2017-10-26T05:11:52.773Z,1018.44
2017-10-26T05:13:01.405Z,1018.47
2017-10-26T05:14:10.036Z,1018.48
2017-10-26T05:15:18.656Z,1018.46
2017-10-26T05:16:27.286Z,1018.46
2017-10-26T05:17:35.917Z,1018.51
2017-10-26T05:18:44.538Z,1018.51
2017-10-26T05:19:53.166Z,1018.55
2017-10-26T05:21:01.797Z,1018.5
2017-10-26T05:22:10.429Z,1018.47
2017-10-26T05:23:19.062Z,1018.46
2017-10-26T05:24:27.682Z,1018.5
2017-10-26T05:25:36.311Z,1018.46
2017-10-26T05:26:44.941Z,1018.48
2017-10-26T05:27:53.562Z,1018.45
2017-10-26T05:29:02.191Z,1018.49
2017-10-26T05:30:10.820Z,1018.5
2017-10-26T05:31:19.448Z,1018.47
2017-10-26T05:32:28.071Z,1018.51
2017-10-26T05:33:36.715Z,1018.4
2017-10-26T05:34:45.330Z,1018.34
2017-10-26T05:35:53.959Z,1018.31
2017-10-26T05:37:02.579Z,1018.25
2017-10-26T05:38:11.211Z,1018.26
2017-10-26T05:39:19.842Z,1018.21
2017-10-26T05:40:28.469Z,1018.17
2017-10-26T05:41:37.093Z,1018.15
2017-10-26T05:42:45.724Z,1018.14
2017-10-26T05:43:54.352Z,1018.16
2017-10-26T05:45:02.986Z,1018.18
2017-10-26T05:46:11.608Z,1018.19
2017-10-26T05:47:20.233Z,1018.2
2017-10-26T05:48:28.861Z,1018.18
2017-10-26T05:49:37.658Z,1018.18
2017-10-26T05:50:46.602Z,1018.2
2017-10-26T05:51:55.237Z,1018.23
2017-10-26T05:53:03.861Z,1018.27
2017-10-26T05:54:12.489Z,1018.22
2017-10-26T05:55:21.122Z,1018.23
2017-10-26T05:56:29.749Z,1018.19
2017-10-26T05:57:38.375Z,1018.21
2017-10-26T05:58:47.000Z,1018.2
2017-10-26T05:59:55.637Z,1018.16
2017-10-26T06:01:04.264Z,1018.16
2017-10-26T06:02:12.891Z,1018.1
2017-10-26T06:03:21.518Z,1018.12
2017-10-26T06:04:30.156Z,1018.13
2017-10-26T06:05:39.110Z,1018.15
2017-10-26T06:06:47.740Z,1018.14
2017-10-26T06:07:56.367Z,1018.15
2017-10-26T06:09:04.994Z,1018.18
2017-10-26T06:10:13.629Z,1018.17
2017-10-26T06:11:22.253Z,1018.21
2017-10-26T06:12:30.883Z,1018.21
2017-10-26T06:13:39.517Z,1018.17
2017-10-26T06:14:48.143Z,1018.22
2017-10-26T06:15:56.768Z,1018.27
2017-10-26T06:17:05.400Z,1018.25
2017-10-26T06:18:14.028Z,1018.28
2017-10-26T06:19:22.649Z,1018.27
2017-10-26T06:20:31.278Z,1018.24
2017-10-26T06:21:39.902Z,1018.18
2017-10-26T06:22:48.538Z,1018.18
2017-10-26T06:23:57.164Z,1018.21
2017-10-26T06:25:05.791Z,1018.22
2017-10-26T06:26:14.434Z,1018.26
2017-10-26T06:27:23.055Z,1018.29
2017-10-26T06:28:31.676Z,1018.23
2017-10-26T06:29:40.301Z,1018.24
2017-10-26T06:30:48.939Z,1018.26
2017-10-26T06:31:57.558Z,1018.26
2017-10-26T06:33:06.190Z,1018.31
2017-10-26T06:34:14.819Z,1018.33
2017-10-26T06:35:23.449Z,1018.4
2017-10-26T06:36:32.077Z,1018.46
2017-10-26T06:37:40.699Z,1018.4
2017-10-26T06:38:49.331Z,1018.36
2017-10-26T06:39:57.963Z,1018.34
2017-10-26T06:41:06.585Z,1018.35
2017-10-26T06:42:15.217Z,1018.35
2017-10-26T06:43:23.850Z,1018.42
2017-10-26T06:44:32.478Z,1018.53
2017-10-26T06:45:41.100Z,1018.61
2017-10-26T06:46:49.738Z,1018.67
2017-10-26T06:47:58.365Z,1018.71
2017-10-26T06:49:06.993Z,1018.73
2017-10-26T06:50:15.613Z,1018.75
2017-10-26T06:51:24.243Z,1018.82
2017-10-26T06:52:32.872Z,1018.88
2017-10-26T06:53:41.499Z,1018.9
2017-10-26T06:54:50.125Z,1018.9
2017-10-26T06:55:58.759Z,1018.89
2017-10-26T06:57:07.388Z,1018.87
2017-10-26T06:58:16.018Z,1018.86
2017-10-26T06:59:24.980Z,1018.82
2017-10-26T07:00:33.612Z,1018.86
2017-10-26T07:01:42.242Z,1018.87
2017-10-26T07:02:50.868Z,1018.88
2017-10-26T07:03:59.504Z,1018.87
2017-10-26T07:05:08.126Z,1018.9
2017-10-26T07:06:16.758Z,1018.86
2017-10-26T07:07:25.387Z,1018.81
2017-10-26T07:08:34.009Z,1018.8
2017-10-26T07:09:42.643Z,1018.77
2017-10-26T07:10:51.273Z,1018.76
2017-10-26T07:12:00.231Z,1018.81
2017-10-26T07:13:08.862Z,1018.88
2017-10-26T07:14:17.498Z,1018.88
2017-10-26T07:15:26.124Z,1018.83
2017-10-26T07:16:34.757Z,1018.76
2017-10-26T07:17:43.385Z,1018.8
2017-10-26T07:18:52.336Z,1018.79
2017-10-26T07:20:00.966Z,1018.84
2017-10-26T07:21:09.602Z,1018.85
2017-10-26T07:22:18.222Z,1018.85
2017-10-26T07:23:26.857Z,1018.83
2017-10-26T07:24:35.486Z,1018.81
2017-10-26T07:25:44.108Z,1018.73
2017-10-26T07:26:52.742Z,1018.71
2017-10-26T07:28:01.709Z,1018.8
2017-10-26T07:29:10.338Z,1018.73
2017-10-26T07:30:18.969Z,1018.75
2017-10-26T07:31:27.926Z,1018.73
2017-10-26T07:32:36.553Z,1018.72
2017-10-26T07:33:45.180Z,1018.75
2017-10-26T07:34:53.814Z,1018.71
2017-10-26T07:36:02.449Z,1018.67
2017-10-26T07:37:11.066Z,1018.64
2017-10-26T07:38:19.695Z,1018.62
2017-10-26T07:39:28.326Z,1018.63
2017-10-26T07:40:36.954Z,1018.57
2017-10-26T07:41:45.600Z,1018.56
2017-10-26T07:42:54.228Z,1018.55
2017-10-26T07:44:02.862Z,1018.51
2017-10-26T07:45:11.636Z,1018.51
2017-10-26T07:46:20.268Z,1018.55
2017-10-26T07:47:28.898Z,1018.55
2017-10-26T07:48:37.531Z,1018.6
2017-10-26T07:49:46.159Z,1018.61
2017-10-26T07:50:54.783Z,1018.61
2017-10-26T07:52:03.414Z,1018.62
2017-10-26T07:53:12.045Z,1018.63
2017-10-26T07:54:20.668Z,1018.65
2017-10-26T07:55:29.626Z,1018.63
2017-10-26T07:56:38.256Z,1018.66
2017-10-26T07:57:46.888Z,1018.68
2017-10-26T07:58:55.521Z,1018.71
2017-10-26T08:00:04.142Z,1018.71
2017-10-26T08:01:12.771Z,1018.72
2017-10-26T08:02:21.403Z,1018.78
2017-10-26T08:03:30.039Z,1018.77
2017-10-26T08:04:38.676Z,1018.8
2017-10-26T08:05:47.293Z,1018.72
2017-10-26T08:06:55.925Z,1018.8
2017-10-26T08:08:04.557Z,1018.8
2017-10-26T08:09:13.188Z,1018.76
2017-10-26T08:10:21.812Z,1018.78
2017-10-26T08:11:30.441Z,1018.75
2017-10-26T08:12:39.062Z,1018.7
2017-10-26T08:13:47.696Z,1018.72
2017-10-26T08:14:56.326Z,1018.73
2017-10-26T08:16:04.957Z,1018.7
2017-10-26T08:17:13.595Z,1018.67
2017-10-26T08:18:22.215Z,1018.64
2017-10-26T08:19:30.849Z,1018.65
2017-10-26T08:20:39.480Z,1018.64
2017-10-26T08:21:48.103Z,1018.61
2017-10-26T08:22:56.735Z,1018.6
2017-10-26T08:24:05.366Z,1018.57
2017-10-26T08:25:14.321Z,1018.59
2017-10-26T08:26:22.955Z,1018.56
2017-10-26T08:27:31.580Z,1018.55
2017-10-26T08:28:40.210Z,1018.55
2017-10-26T08:29:49.166Z,1018.51
2017-10-26T08:30:57.788Z,1018.51
2017-10-26T08:32:06.430Z,1018.53
2017-10-26T08:33:15.059Z,1018.52
2017-10-26T08:34:23.694Z,1018.48
2017-10-26T08:35:32.329Z,1018.47
2017-10-26T08:36:40.954Z,1018.46
2017-10-26T08:37:49.583Z,1018.46
2017-10-26T08:38:58.217Z,1018.44
2017-10-26T08:40:06.848Z,1018.48
2017-10-26T08:41:15.466Z,1018.48
2017-10-26T08:42:24.097Z,1018.52
2017-10-26T08:43:32.725Z,1018.5
2017-10-26T08:44:41.351Z,1018.55
2017-10-26T08:45:49.986Z,1018.56
2017-10-26T08:46:58.613Z,1018.54
2017-10-26T08:48:07.246Z,1018.52
2017-10-26T08:49:15.872Z,1018.54
2017-10-26T08:50:24.503Z,1018.51
2017-10-26T08:51:33.132Z,1018.52
2017-10-26T08:52:41.762Z,1018.47
2017-10-26T08:53:50.394Z,1018.49
2017-10-26T08:54:59.017Z,1018.48
2017-10-26T08:56:07.646Z,1018.49
2017-10-26T08:57:16.277Z,1018.47
2017-10-26T08:58:25.229Z,1018.45
2017-10-26T08:59:33.862Z,1018.43
2017-10-26T09:00:42.499Z,1018.49
2017-10-26T09:01:51.459Z,1018.5
2017-10-26T09:03:00.094Z,1018.52
2017-10-26T09:04:08.717Z,1018.57
2017-10-26T09:05:17.349Z,1018.59
2017-10-26T09:06:25.981Z,1018.55
2017-10-26T09:07:34.607Z,1018.59
2017-10-26T09:08:43.240Z,1018.58
2017-10-26T09:09:51.870Z,1018.59
2017-10-26T09:11:00.498Z,1018.61
2017-10-26T09:12:09.129Z,1018.62
2017-10-26T09:13:17.765Z,1018.61
2017-10-26T09:14:26.394Z,1018.57
2017-10-26T09:15:35.025Z,1018.59
2017-10-26T09:16:43.649Z,1018.65
2017-10-26T09:17:52.281Z,1018.67
2017-10-26T09:19:00.914Z,1018.67
2017-10-26T09:20:09.539Z,1018.65
2017-10-26T09:21:18.170Z,1018.65
2017-10-26T09:22:26.806Z,1018.65
2017-10-26T09:23:35.439Z,1018.68
2017-10-26T09:24:44.069Z,1018.66
2017-10-26T09:25:52.701Z,1018.62
2017-10-26T09:27:01.331Z,1018.59
2017-10-26T09:28:09.957Z,1018.57
2017-10-26T09:29:18.590Z,1018.53
2017-10-26T09:30:27.213Z,1018.55
2017-10-26T09:31:35.854Z,1018.55
2017-10-26T09:32:44.803Z,1018.52
2017-10-26T09:33:53.432Z,1018.52
2017-10-26T09:35:02.067Z,1018.5
2017-10-26T09:36:10.698Z,1018.57
2017-10-26T09:37:19.325Z,1018.57
2017-10-26T09:38:27.953Z,1018.58
2017-10-26T09:39:36.585Z,1018.6
2017-10-26T09:40:45.208Z,1018.61
2017-10-26T09:41:53.842Z,1018.59
2017-10-26T09:43:02.473Z,1018.57
2017-10-26T09:44:11.096Z,1018.57
2017-10-26T09:45:19.732Z,1018.61
2017-10-26T09:46:28.360Z,1018.61
2017-10-26T09:47:36.993Z,1018.61
2017-10-26T09:48:45.625Z,1018.61
2017-10-26T09:49:54.255Z,1018.6
2017-10-26T09:51:02.879Z,1018.61
2017-10-26T09:52:11.509Z,1018.69
2017-10-26T09:53:20.144Z,1018.68
2017-10-26T09:54:28.775Z,1018.66
2017-10-26T09:55:37.407Z,1018.68
2017-10-26T09:56:46.039Z,1018.68
2017-10-26T09:57:55.004Z,1018.67
2017-10-26T09:59:03.629Z,1018.63
2017-10-26T10:00:12.263Z,1018.64
2017-10-26T10:01:20.890Z,1018.61
2017-10-26T10:02:29.528Z,1018.62
2017-10-26T10:03:38.157Z,1018.6
2017-10-26T10:04:46.784Z,1018.62
2017-10-26T10:05:55.419Z,1018.67
2017-10-26T10:07:04.054Z,1018.72
2017-10-26T10:08:12.684Z,1018.68
2017-10-26T10:09:21.312Z,1018.68
2017-10-26T10:10:29.944Z,1018.73
2017-10-26T10:11:38.894Z,1018.75
2017-10-26T10:12:47.525Z,1018.74
2017-10-26T10:13:56.165Z,1018.73
2017-10-26T10:15:04.802Z,1018.69
2017-10-26T10:16:13.433Z,1018.7
2017-10-26T10:17:22.053Z,1018.71
2017-10-26T10:18:30.687Z,1018.66
2017-10-26T10:19:39.320Z,1018.7
2017-10-26T10:20:47.942Z,1018.66
2017-10-26T10:21:56.576Z,1018.68
2017-10-26T10:23:05.211Z,1018.67
2017-10-26T10:24:13.846Z,1018.71
2017-10-26T10:25:22.474Z,1018.71
2017-10-26T10:26:31.116Z,1018.74
2017-10-26T10:27:39.742Z,1018.77
2017-10-26T10:28:48.377Z,1018.77
2017-10-26T10:29:56.998Z,1018.74
2017-10-26T10:31:05.965Z,1018.74
2017-10-26T10:32:14.601Z,1018.75
2017-10-26T10:33:23.233Z,1018.74
2017-10-26T10:34:31.862Z,1018.68
2017-10-26T10:35:40.501Z,1018.71
2017-10-26T10:36:49.135Z,1018.67
2017-10-26T10:37:57.763Z,1018.66
2017-10-26T10:39:06.401Z,1018.69
2017-10-26T10:40:15.033Z,1018.67
2017-10-26T10:41:23.664Z,1018.65
2017-10-26T10:42:32.301Z,1018.64
2017-10-26T10:43:40.925Z,1018.58
2017-10-26T10:44:49.562Z,1018.59
2017-10-26T10:45:58.191Z,1018.59
2017-10-26T10:47:06.820Z,1018.58
2017-10-26T10:48:15.462Z,1018.56
2017-10-26T10:49:24.091Z,1018.51
2017-10-26T10:50:32.720Z,1018.48
2017-10-26T10:51:41.347Z,1018.51
2017-10-26T10:52:49.980Z,1018.51
2017-10-26T10:53:58.619Z,1018.46
2017-10-26T10:55:07.250Z,1018.46
2017-10-26T10:56:15.879Z,1018.47
2017-10-26T10:57:24.517Z,1018.46
2017-10-26T10:58:33.143Z,1018.43
2017-10-26T10:59:41.775Z,1018.45
2017-10-26T11:00:50.406Z,1018.38
2017-10-26T11:01:59.037Z,1018.41
2017-10-26T11:03:07.676Z,1018.35
2017-10-26T11:04:16.306Z,1018.34
2017-10-26T11:05:24.934Z,1018.41
2017-10-26T11:06:33.574Z,1018.39
2017-10-26T11:07:42.205Z,1018.29
2017-10-26T11:08:50.843Z,1018.28
2017-10-26T11:09:59.475Z,1018.24
2017-10-26T11:11:08.121Z,1018.26
2017-10-26T11:12:16.747Z,1018.18
2017-10-26T11:13:25.384Z,1018.24
2017-10-26T11:14:34.016Z,1018.22
2017-10-26T11:15:42.656Z,1018.18
2017-10-26T11:16:51.286Z,1018.19
2017-10-26T11:17:59.918Z,1018.15
2017-10-26T11:19:08.758Z,1018.13
2017-10-26T11:20:17.397Z,1018.2
2017-10-26T11:21:26.045Z,1018.18
2017-10-26T11:22:34.695Z,1018.16
2017-10-26T11:23:43.331Z,1018.15
2017-10-26T11:24:51.955Z,1018.14
2017-10-26T11:26:00.591Z,1018.16
2017-10-26T11:27:09.225Z,1018.06
2017-10-26T11:28:17.854Z,1018.07
2017-10-26T11:29:27.093Z,1018.08
2017-10-26T11:30:35.736Z,1018.08
2017-10-26T11:31:44.379Z,1018.08
2017-10-26T11:32:53.017Z,1018.03
2017-10-26T11:34:01.977Z,1018.04
2017-10-26T11:35:10.610Z,1018.07
2017-10-26T11:36:19.251Z,1018.01
2017-10-26T11:37:27.887Z,1018
2017-10-26T11:38:36.518Z,1018.03
2017-10-26T11:39:45.225Z,1018.02
2017-10-26T11:40:53.871Z,1018
2017-10-26T11:42:02.869Z,1018
2017-10-26T11:43:11.830Z,1018
2017-10-26T11:44:20.464Z,1018.04
2017-10-26T11:45:29.101Z,1018.09
2017-10-26T11:46:37.731Z,1018.06
2017-10-26T11:47:47.881Z,1018.06
2017-10-26T11:48:57.992Z,1018.11
2017-10-26T11:50:06.663Z,1018.13
2017-10-26T11:51:15.295Z,1018.1
2017-10-26T11:52:23.920Z,1018.11
2017-10-26T11:53:32.555Z,1018.17
2017-10-26T11:54:41.192Z,1018.12
2017-10-26T11:55:49.822Z,1018.07
2017-10-26T11:56:58.461Z,1018.11
2017-10-26T11:58:07.086Z,1018.08
2017-10-26T11:59:15.720Z,1018.07
2017-10-26T12:00:24.356Z,1018.01
2017-10-26T12:01:32.983Z,1017.98
2017-10-26T12:02:41.619Z,1018.03
2017-10-26T12:03:50.254Z,1017.97
2017-10-26T12:04:58.882Z,1017.99
2017-10-26T12:06:07.514Z,1017.95
2017-10-26T12:07:16.152Z,1017.92
2017-10-26T12:08:24.784Z,1017.94
2017-10-26T12:09:33.409Z,1017.98
2017-10-26T12:10:42.048Z,1017.98
2017-10-26T12:11:50.674Z,1017.99
2017-10-26T12:12:59.308Z,1017.94
2017-10-26T12:14:07.940Z,1017.88
2017-10-26T12:15:16.569Z,1017.85
2017-10-26T12:16:25.210Z,1017.79
2017-10-26T12:17:33.843Z,1017.86
2017-10-26T12:18:42.477Z,1017.79
2017-10-26T12:19:51.119Z,1017.76
2017-10-26T12:20:59.740Z,1017.77
2017-10-26T12:22:08.376Z,1017.75
2017-10-26T12:23:17.008Z,1017.74
2017-10-26T12:24:25.977Z,1017.73
2017-10-26T12:25:34.615Z,1017.69
2017-10-26T12:26:43.246Z,1017.69
2017-10-26T12:27:51.882Z,1017.63
2017-10-26T12:29:00.508Z,1017.71
2017-10-26T12:30:09.143Z,1017.78
2017-10-26T12:31:17.779Z,1017.74
2017-10-26T12:32:26.412Z,1017.8
2017-10-26T12:33:35.037Z,1017.77
2017-10-26T12:34:43.675Z,1017.81
2017-10-26T12:35:52.308Z,1017.8
2017-10-26T12:37:00.935Z,1017.83
2017-10-26T12:38:09.581Z,1017.78
2017-10-26T12:39:18.212Z,1017.72
2017-10-26T12:40:26.842Z,1017.72
2017-10-26T12:41:35.471Z,1017.68
2017-10-26T12:42:44.102Z,1017.69
2017-10-26T12:43:52.742Z,1017.66
2017-10-26T12:45:01.372Z,1017.63
2017-10-26T12:46:10.001Z,1017.66
2017-10-26T12:47:18.640Z,1017.7
2017-10-26T12:48:27.265Z,1017.68
2017-10-26T12:49:35.901Z,1017.69
2017-10-26T12:50:44.530Z,1017.72
2017-10-26T12:51:53.163Z,1017.7
2017-10-26T12:53:01.803Z,1017.64
2017-10-26T12:54:10.433Z,1017.62
2017-10-26T12:55:19.069Z,1017.59
2017-10-26T12:56:27.697Z,1017.52
2017-10-26T12:57:36.327Z,1017.61
2017-10-26T12:58:44.963Z,1017.6
2017-10-26T12:59:53.591Z,1017.62
2017-10-26T13:01:02.223Z,1017.7
2017-10-26T13:02:10.864Z,1017.62
2017-10-26T13:03:19.492Z,1017.64
2017-10-26T13:04:28.121Z,1017.7
2017-10-26T13:05:36.767Z,1017.57
2017-10-26T13:06:45.394Z,1017.64
2017-10-26T13:07:54.024Z,1017.61
2017-10-26T13:09:02.989Z,1017.64
2017-10-26T13:10:11.623Z,1017.67
2017-10-26T13:11:20.253Z,1017.66
2017-10-26T13:12:28.883Z,1017.67
2017-10-26T13:13:37.514Z,1017.63
2017-10-26T13:14:46.152Z,1017.65
2017-10-26T13:15:54.778Z,1017.57
2017-10-26T13:17:03.409Z,1017.58
2017-10-26T13:18:12.046Z,1017.57
2017-10-26T13:19:20.678Z,1017.52
2017-10-26T13:20:29.306Z,1017.49
2017-10-26T13:21:37.932Z,1017.49
2017-10-26T13:22:46.566Z,1017.46
2017-10-26T13:23:55.190Z,1017.43
2017-10-26T13:25:03.829Z,1017.47
2017-10-26T13:26:12.459Z,1017.49
2017-10-26T13:27:21.094Z,1017.5
2017-10-26T13:28:29.727Z,1017.47
2017-10-26T13:29:38.350Z,1017.46
2017-10-26T13:30:46.982Z,1017.42
2017-10-26T13:31:55.616Z,1017.39
2017-10-26T13:33:04.242Z,1017.39
2017-10-26T13:34:12.873Z,1017.34
2017-10-26T13:35:21.508Z,1017.32
2017-10-26T13:36:30.137Z,1017.33
2017-10-26T13:37:38.770Z,1017.29
2017-10-26T13:38:47.737Z,1017.26
2017-10-26T13:39:56.369Z,1017.3
2017-10-26T13:41:04.999Z,1017.28
2017-10-26T13:42:13.627Z,1017.27
2017-10-26T13:43:22.261Z,1017.32
2017-10-26T13:44:30.897Z,1017.25
2017-10-26T13:45:39.528Z,1017.31
2017-10-26T13:46:48.166Z,1017.3
2017-10-26T13:47:56.789Z,1017.3
2017-10-26T13:49:05.424Z,1017.27
2017-10-26T13:50:14.057Z,1017.32
2017-10-26T13:51:22.685Z,1017.31
2017-10-26T13:52:31.318Z,1017.4
2017-10-26T13:53:39.951Z,1017.38